Hlavní strana
METAR-TAF:

METAR-TAF

Letiště :

Thule, Grónsko

zeměpisná šířka: 76-32N, zeměpisná délka: 068-42W, výška: 77 m

Aktuální stav počasí

Zpráva byla vytvořena před 4 hodinami a 48 minutami, v 11:48 UTC
Jižní vítr 12 kt
Teplota -22°C
Vlhkost vzduchu 70%
Tlak 1012 hPa
Viditelnost 10 km a více
Polojasno ve výšce 900 ft

METAR: BGTL 191148Z AUTO 17012KT 9999 SCT009 M22/M26 A2988 RMK AO2 SLP110 TSNO $

Čas: 13:36 (16:36 UTC)

Předpověď počasí

Zpráva byla vytvořena před 7 hodinami a 36 minutami, v 09:00 UTC
Předpověď platná od 19 v 09 UTC do 20 v 15 UTC
Východní vítr 9 kt, proměnlivý mezi východoseverovýchodním a jižním
Viditelnost 10 km a více
Oblačno až skoro zataženo ve výšce 5000 ft
Oblačno až skoro zataženo ve výšce 15000 ft

TAF: BGTL 190900Z 1909/2015 10009KT 9999 BKN050 BKN150 QNH2965INS WND 070V170 TXM18/1917Z TNM32/2009Z

Stav a předpovědi počasí z více než 4 000 letišť (zprávy METAR a TAF).

Červené a žluté tečky na mapě představují dostupné meteorologické stanice.

Když kurzor umístíte na tečku, zobrazí se název stanice.

Pak kliknutím zobrazíte stav a předpověď počasí.

Chcete-li změnit mapu, kliknutím na zelené tlačítko se znaménkem +mapu přiblížíte, kliknutím na zelené tlačítko se znaménkem – mapu oddálíte a kliknutím na zelené šipky přejdete na sousední mapy.


METAR-TAF: